createdAt,value
2019-01-17T00:00:05.235Z,99316.76
2019-01-17T00:03:00.814Z,99319.80
2019-01-17T00:05:53.627Z,99316.84
2019-01-17T00:08:48.389Z,99309.28
2019-01-17T00:11:56.653Z,99304.88
2019-01-17T00:14:34.757Z,99311.93
2019-01-17T00:17:32.515Z,99304.03
2019-01-17T00:20:21.226Z,99311.39
2019-01-17T00:23:09.391Z,99310.11
2019-01-17T00:25:54.717Z,99304.81
2019-01-17T00:28:42.868Z,99307.91
2019-01-17T00:31:32.625Z,99296.03
2019-01-17T00:34:25.373Z,99296.03
2019-01-17T00:37:15.172Z,99298.53
2019-01-17T00:40:03.545Z,99283.02
2019-01-17T00:42:53.316Z,99291.17
2019-01-17T00:46:01.002Z,99291.80
2019-01-17T00:48:44.683Z,99290.88
2019-01-17T00:51:40.588Z,99290.20
2019-01-17T00:54:39.304Z,99298.89
2019-01-17T00:57:26.128Z,99299.20
2019-01-17T01:00:24.761Z,99295.27
2019-01-17T01:03:23.656Z,99294.06
2019-01-17T01:06:13.685Z,99295.86
2019-01-17T01:09:18.331Z,99294.45
2019-01-17T01:12:00.572Z,99285.45
2019-01-17T01:14:51.651Z,99288.08
2019-01-17T01:17:44.504Z,99277.80
2019-01-17T01:20:52.607Z,99286.41
2019-01-17T01:23:45.579Z,99286.56
2019-01-17T01:26:35.294Z,99288.23
2019-01-17T01:29:23.538Z,99279.83
2019-01-17T01:32:02.239Z,99278.46
2019-01-17T01:35:06.859Z,99271.22
2019-01-17T01:37:54.701Z,99275.89
2019-01-17T01:40:41.069Z,99286.48
2019-01-17T01:43:35.683Z,99287.17
2019-01-17T01:46:37.436Z,99271.44
2019-01-17T01:49:17.320Z,99276.45
2019-01-17T01:51:54.021Z,99274.40
2019-01-17T01:54:24.908Z,99283.03
2019-01-17T01:56:55.821Z,99285.97
2019-01-17T01:59:26.711Z,99279.62
2019-01-17T02:01:57.604Z,99292.98
2019-01-17T02:04:28.523Z,99293.75
2019-01-17T02:06:59.702Z,99288.53
2019-01-17T02:09:30.643Z,99288.38
2019-01-17T02:12:01.625Z,99293.06
2019-01-17T02:14:32.615Z,99290.44
2019-01-17T02:17:03.995Z,99284.45
2019-01-17T02:19:34.891Z,99281.37
2019-01-17T02:22:05.899Z,99285.34
2019-01-17T02:24:36.794Z,99284.06
2019-01-17T02:27:07.701Z,99287.02
2019-01-17T02:29:38.700Z,99282.80
2019-01-17T02:32:09.586Z,99281.27
2019-01-17T02:34:40.612Z,99286.20
2019-01-17T02:37:11.533Z,99292.91
2019-01-17T02:39:42.434Z,99286.41
2019-01-17T02:42:13.368Z,99286.63
2019-01-17T02:44:44.317Z,99291.11
2019-01-17T02:47:15.265Z,99289.59
2019-01-17T02:49:47.296Z,99291.34
2019-01-17T02:52:18.508Z,99298.81
2019-01-17T02:54:49.416Z,99293.75
2019-01-17T02:57:20.340Z,99294.73
2019-01-17T02:59:51.325Z,99291.87
2019-01-17T03:02:22.203Z,99292.63
2019-01-17T03:04:53.126Z,99292.23
2019-01-17T03:07:24.011Z,99299.82
2019-01-17T03:09:55.183Z,99299.72
2019-01-17T03:12:26.332Z,99297.77
2019-01-17T03:14:57.509Z,99297.14
2019-01-17T03:17:28.411Z,99299.17
2019-01-17T03:19:59.360Z,99302.21
2019-01-17T03:22:30.370Z,99297.38
2019-01-17T03:25:01.536Z,99300.30
2019-01-17T03:27:32.473Z,99296.02
2019-01-17T03:30:03.355Z,99291.00
2019-01-17T03:32:34.314Z,99300.61
2019-01-17T03:35:06.077Z,99298.47
2019-01-17T03:37:37.250Z,99298.23
2019-01-17T03:40:09.830Z,99298.31
2019-01-17T03:42:40.786Z,99299.61
2019-01-17T03:45:12.474Z,99304.00
2019-01-17T03:47:44.355Z,99301.81
2019-01-17T03:50:17.052Z,99307.55
2019-01-17T03:52:47.998Z,99311.33
2019-01-17T03:55:21.307Z,99312.84
2019-01-17T03:57:52.265Z,99308.98
2019-01-17T04:00:23.186Z,99310.19
2019-01-17T04:02:54.112Z,99307.00
2019-01-17T04:05:25.009Z,99310.34
2019-01-17T04:07:56.562Z,99322.38
2019-01-17T04:10:27.853Z,99320.63
2019-01-17T04:12:59.124Z,99317.47
2019-01-17T04:15:30.041Z,99317.50
2019-01-17T04:18:00.984Z,99308.90
2019-01-17T04:20:31.865Z,99315.17
2019-01-17T04:23:02.738Z,99312.75
2019-01-17T04:25:33.682Z,99316.22
2019-01-17T04:28:04.654Z,99321.28
2019-01-17T04:30:35.534Z,99322.37
2019-01-17T04:33:06.840Z,99320.97
2019-01-17T04:35:37.717Z,99322.64
2019-01-17T04:38:08.981Z,99332.77
2019-01-17T04:40:39.907Z,99336.50
2019-01-17T04:43:10.770Z,99341.45
2019-01-17T04:45:41.644Z,99331.17
2019-01-17T04:48:12.592Z,99339.02
2019-01-17T04:50:43.533Z,99341.28
2019-01-17T04:53:14.400Z,99334.45
2019-01-17T04:55:45.411Z,99334.61
2019-01-17T04:58:16.285Z,99347.13
2019-01-17T05:00:47.168Z,99339.42
2019-01-17T05:03:18.084Z,99337.66
2019-01-17T05:05:48.983Z,99337.17
2019-01-17T05:08:19.943Z,99339.33
2019-01-17T05:10:50.863Z,99343.13
2019-01-17T05:13:21.737Z,99338.55
2019-01-17T05:15:52.936Z,99341.16
2019-01-17T05:18:24.959Z,99336.55
2019-01-17T05:20:55.849Z,99340.08
2019-01-17T05:23:26.753Z,99341.90
2019-01-17T05:25:57.682Z,99338.41
2019-01-17T05:28:28.557Z,99336.52
2019-01-17T05:30:59.434Z,99335.98
2019-01-17T05:33:30.352Z,99333.27
2019-01-17T05:36:01.231Z,99334.20
2019-01-17T05:38:32.109Z,99346.98
2019-01-17T05:41:03.259Z,99338.97
2019-01-17T05:43:34.142Z,99348.09
2019-01-17T05:46:05.097Z,99357.23
2019-01-17T05:48:36.020Z,99367.36
2019-01-17T05:51:07.006Z,99363.49
2019-01-17T05:53:37.879Z,99359.03
2019-01-17T05:56:08.810Z,99355.86
2019-01-17T05:58:39.993Z,99362.04
2019-01-17T06:01:10.875Z,99357.23
2019-01-17T06:03:41.794Z,99366.32
2019-01-17T06:06:12.676Z,99363.17
2019-01-17T06:08:43.546Z,99362.56
2019-01-17T06:11:14.466Z,99373.69
2019-01-17T06:13:45.340Z,99364.33
2019-01-17T06:16:16.222Z,99359.08
2019-01-17T06:18:47.151Z,99363.13
2019-01-17T06:21:18.026Z,99354.81
2019-01-17T06:23:48.995Z,99360.61
2019-01-17T06:26:21.769Z,99362.38
2019-01-17T06:28:52.812Z,99365.04
2019-01-17T06:31:23.684Z,99357.89
2019-01-17T06:33:54.606Z,99365.98
2019-01-17T06:36:25.771Z,99361.41
2019-01-17T06:38:57.716Z,99360.07
2019-01-17T06:41:28.948Z,99360.46
2019-01-17T06:43:59.823Z,99361.48
2019-01-17T06:46:30.715Z,99351.16
2019-01-17T06:49:01.649Z,99354.33
2019-01-17T06:51:33.100Z,99348.80
2019-01-17T06:54:03.979Z,99363.33
2019-01-17T06:56:34.901Z,99363.49
2019-01-17T06:59:05.780Z,99361.65
2019-01-17T07:01:36.666Z,99362.62
2019-01-17T07:04:07.603Z,99368.07
2019-01-17T07:06:38.483Z,99362.93
2019-01-17T07:09:13.592Z,99368.81
2019-01-17T07:11:44.839Z,99363.68
2019-01-17T07:14:15.703Z,99359.83
2019-01-17T07:16:46.698Z,99358.94
2019-01-17T07:19:18.475Z,99361.11
2019-01-17T07:21:49.992Z,99364.87
2019-01-17T07:24:21.493Z,99371.22
2019-01-17T07:26:52.697Z,99375.53
2019-01-17T07:29:24.674Z,99380.52
2019-01-17T07:31:55.839Z,99382.92
2019-01-17T07:34:26.759Z,99377.70
2019-01-17T07:36:59.723Z,99377.00
2019-01-17T07:39:30.661Z,99369.37
2019-01-17T07:42:01.561Z,99376.44
2019-01-17T07:44:32.450Z,99385.81
2019-01-17T07:47:04.665Z,99394.16
2019-01-17T07:49:35.819Z,99397.62
2019-01-17T07:52:06.953Z,99384.84
2019-01-17T07:54:37.832Z,99389.27
2019-01-17T07:57:08.718Z,99385.91
2019-01-17T07:59:39.933Z,99397.77
2019-01-17T08:02:10.813Z,99393.52
2019-01-17T08:04:42.223Z,99389.48
2019-01-17T08:07:13.154Z,99402.80
2019-01-17T08:09:44.052Z,99397.68
2019-01-17T08:12:15.247Z,99405.34
2019-01-17T08:14:46.149Z,99399.94
2019-01-17T08:17:17.072Z,99399.97
2019-01-17T08:19:47.952Z,99398.09
2019-01-17T08:22:19.121Z,99405.11
2019-01-17T08:24:50.631Z,99411.99
2019-01-17T08:27:21.599Z,99414.25
2019-01-17T08:29:52.515Z,99412.80
2019-01-17T08:32:23.396Z,99417.52
2019-01-17T08:34:54.265Z,99403.97
2019-01-17T08:37:25.631Z,99416.63
2019-01-17T08:39:56.807Z,99419.80
2019-01-17T08:42:28.019Z,99415.30
2019-01-17T08:44:58.919Z,99423.19
2019-01-17T08:47:30.110Z,99429.86
2019-01-17T08:50:01.025Z,99423.58
2019-01-17T08:52:32.040Z,99425.08
2019-01-17T08:55:03.245Z,99420.63
2019-01-17T08:57:34.146Z,99415.43
2019-01-17T09:00:06.319Z,99415.16
2019-01-17T09:02:37.547Z,99416.31
2019-01-17T09:05:09.866Z,99418.70
2019-01-17T09:07:40.875Z,99413.66
2019-01-17T09:10:16.385Z,99412.77
2019-01-17T09:12:47.311Z,99405.52
2019-01-17T09:15:20.262Z,99416.75
2019-01-17T09:17:51.494Z,99419.29
2019-01-17T09:20:22.702Z,99419.03
2019-01-17T09:22:53.575Z,99418.63
2019-01-17T09:25:24.496Z,99417.74
2019-01-17T09:27:55.670Z,99417.77
2019-01-17T09:30:26.725Z,99415.80
2019-01-17T09:32:57.921Z,99410.24
2019-01-17T09:35:28.807Z,99411.14
2019-01-17T09:37:59.782Z,99418.00
2019-01-17T09:40:30.698Z,99410.06
2019-01-17T09:43:01.590Z,99417.55
2019-01-17T09:45:32.570Z,99413.13
2019-01-17T09:48:03.452Z,99413.82
2019-01-17T09:50:34.385Z,99417.22
2019-01-17T09:53:05.263Z,99414.38
2019-01-17T09:55:36.175Z,99416.03
2019-01-17T09:58:07.184Z,99416.38
2019-01-17T10:00:38.070Z,99409.91
2019-01-17T10:03:08.995Z,99412.69
2019-01-17T10:05:39.894Z,99417.84
2019-01-17T10:08:10.851Z,99408.05
2019-01-17T10:10:41.761Z,99405.66
2019-01-17T10:13:12.651Z,99400.29
2019-01-17T10:15:59.179Z,99404.98
2019-01-17T10:23:38.716Z,99383.65
2019-01-17T10:27:04.680Z,99388.20
2019-01-17T10:30:21.681Z,99387.25
2019-01-17T10:33:33.582Z,99388.52
2019-01-17T10:36:58.299Z,99385.22
2019-01-17T10:40:28.697Z,99383.43
2019-01-17T10:43:43.162Z,99378.98
2019-01-17T10:47:28.887Z,99378.78
2019-01-17T10:51:05.749Z,99367.02
2019-01-17T10:54:05.776Z,99361.10
2019-01-17T10:57:30.932Z,99361.31
2019-01-17T11:00:38.290Z,99355.54
2019-01-17T11:04:07.760Z,99344.97
2019-01-17T11:08:02.809Z,99346.95
2019-01-17T11:11:34.184Z,99343.35
2019-01-17T11:15:11.814Z,99341.09
2019-01-17T11:18:33.120Z,99330.70
2019-01-17T11:22:11.466Z,99330.59
2019-01-17T11:25:27.592Z,99329.39
2019-01-17T11:28:25.090Z,99323.36
2019-01-17T11:32:13.977Z,99316.66
2019-01-17T11:35:45.621Z,99314.00
2019-01-17T11:39:14.615Z,99315.96
2019-01-17T11:42:32.891Z,99313.30
2019-01-17T11:45:52.100Z,99310.72
2019-01-17T11:49:15.683Z,99308.17
2019-01-17T11:52:42.861Z,99310.95
2019-01-17T11:55:58.132Z,99309.52
2019-01-17T11:59:43.772Z,99296.37
2019-01-17T12:03:10.682Z,99296.22
2019-01-17T12:05:41.579Z,99288.63
2019-01-17T12:08:12.465Z,99284.95
2019-01-17T12:10:43.390Z,99280.09
2019-01-17T12:13:17.516Z,99282.11
2019-01-17T12:15:46.957Z,99285.92
2019-01-17T12:18:17.937Z,99282.25
2019-01-17T12:20:49.416Z,99279.97
2019-01-17T12:23:20.363Z,99287.84
2019-01-17T12:25:51.251Z,99276.69
2019-01-17T12:28:22.145Z,99283.22
2019-01-17T12:30:53.072Z,99272.73
2019-01-17T12:33:24.286Z,99268.87
2019-01-17T12:35:55.268Z,99269.81
2019-01-17T12:38:26.753Z,99265.45
2019-01-17T12:40:57.755Z,99262.08
2019-01-17T12:43:28.623Z,99262.67
2019-01-17T12:45:59.511Z,99256.95
2019-01-17T12:48:30.420Z,99250.98
2019-01-17T12:51:01.302Z,99253.36
2019-01-17T12:53:32.333Z,99253.09
2019-01-17T12:56:03.255Z,99247.13
2019-01-17T12:58:34.211Z,99235.67
2019-01-17T13:01:05.519Z,99238.81
2019-01-17T13:03:36.407Z,99232.39
2019-01-17T13:06:07.463Z,99231.75
2019-01-17T13:08:38.349Z,99235.30
2019-01-17T13:11:09.224Z,99228.94
2019-01-17T13:13:40.455Z,99222.61
2019-01-17T13:16:11.340Z,99215.77
2019-01-17T13:18:42.290Z,99225.19
2019-01-17T13:21:13.270Z,99229.70
2019-01-17T13:23:44.159Z,99223.95
2019-01-17T13:26:15.373Z,99228.00
2019-01-17T13:28:46.377Z,99228.14
2019-01-17T13:31:17.510Z,99226.85
2019-01-17T13:33:48.460Z,99223.89
2019-01-17T13:36:19.372Z,99236.45
2019-01-17T13:38:50.415Z,99242.23
2019-01-17T13:41:21.303Z,99234.27
2019-01-17T13:43:52.236Z,99239.77
2019-01-17T13:46:23.408Z,99236.67
2019-01-17T13:48:54.303Z,99232.42
2019-01-17T13:51:25.525Z,99240.90
2019-01-17T13:53:56.466Z,99244.61
2019-01-17T13:56:27.391Z,99242.66
2019-01-17T13:58:58.264Z,99238.95
2019-01-17T14:01:29.448Z,99240.45
2019-01-17T14:04:00.391Z,99252.38
2019-01-17T14:06:31.365Z,99251.99
2019-01-17T14:09:02.295Z,99256.16
2019-01-17T14:11:33.178Z,99257.70
2019-01-17T14:14:04.225Z,99259.77
2019-01-17T14:16:35.160Z,99241.91
2019-01-17T14:19:06.043Z,99240.63
2019-01-17T14:21:37.026Z,99256.54
2019-01-17T14:24:08.191Z,99256.50
2019-01-17T14:26:39.120Z,99255.68
2019-01-17T14:29:10.044Z,99254.66
2019-01-17T14:31:40.921Z,99251.71
2019-01-17T14:34:11.855Z,99259.42
2019-01-17T14:36:42.750Z,99259.91
2019-01-17T14:39:13.648Z,99259.13
2019-01-17T14:41:44.573Z,99268.01
2019-01-17T14:44:15.449Z,99263.60
2019-01-17T14:46:46.401Z,99272.25
2019-01-17T14:49:17.297Z,99274.36
2019-01-17T14:51:48.487Z,99274.43
2019-01-17T14:54:19.403Z,99271.45
2019-01-17T14:56:50.280Z,99277.45
2019-01-17T14:59:21.221Z,99281.77
2019-01-17T15:01:52.121Z,99278.69
2019-01-17T15:04:23.092Z,99292.20
2019-01-17T15:06:54.327Z,99286.14
2019-01-17T15:09:25.216Z,99296.12
2019-01-17T15:11:56.170Z,99291.95
2019-01-17T15:14:27.056Z,99296.95
2019-01-17T15:16:58.142Z,99299.52
2019-01-17T15:19:29.094Z,99307.14
2019-01-17T15:22:00.332Z,99304.19
2019-01-17T15:24:31.210Z,99313.77
2019-01-17T15:27:02.127Z,99321.80
2019-01-17T15:29:33.297Z,99327.78
2019-01-17T15:32:04.213Z,99325.96
2019-01-17T15:34:35.148Z,99334.91
2019-01-17T15:37:06.332Z,99337.28
2019-01-17T15:39:37.263Z,99343.48
2019-01-17T15:42:08.178Z,99346.16
2019-01-17T15:44:39.076Z,99348.56
2019-01-17T15:47:13.233Z,99352.34
2019-01-17T15:49:42.667Z,99350.60
2019-01-17T15:52:13.558Z,99361.27
2019-01-17T15:54:44.514Z,99357.72
2019-01-17T15:57:15.743Z,99369.78
2019-01-17T15:59:46.614Z,99370.49
2019-01-17T16:02:17.520Z,99373.24
2019-01-17T16:04:48.396Z,99379.80
2019-01-17T16:07:19.618Z,99386.66
2019-01-17T16:09:50.495Z,99392.56
2019-01-17T16:12:21.460Z,99397.21
2019-01-17T16:14:52.392Z,99400.30
2019-01-17T16:17:23.287Z,99409.27
2019-01-17T16:19:54.218Z,99411.02
2019-01-17T16:22:25.139Z,99420.63
2019-01-17T16:24:56.086Z,99421.21
2019-01-17T16:27:27.381Z,99424.93
2019-01-17T16:30:00.551Z,99430.36
2019-01-17T16:32:31.523Z,99436.50
2019-01-17T16:35:02.409Z,99435.13
2019-01-17T16:37:33.311Z,99441.89
2019-01-17T16:40:04.433Z,99435.67
2019-01-17T16:42:35.314Z,99440.21
2019-01-17T16:45:07.895Z,99445.05
2019-01-17T16:47:38.792Z,99457.00
2019-01-17T16:50:17.952Z,99449.38
2019-01-17T16:52:48.826Z,99460.37
2019-01-17T16:55:19.734Z,99461.18
2019-01-17T16:57:50.650Z,99465.91
2019-01-17T17:00:38.295Z,99469.70
2019-01-17T17:03:09.244Z,99474.40
2019-01-17T17:05:40.421Z,99473.94
2019-01-17T17:08:11.551Z,99482.30
2019-01-17T17:10:42.749Z,99484.86
2019-01-17T17:13:14.968Z,99486.69
2019-01-17T17:15:45.968Z,99482.58
2019-01-17T17:18:16.894Z,99493.04
2019-01-17T17:20:47.827Z,99493.56
2019-01-17T17:23:18.815Z,99509.70
2019-01-17T17:25:49.764Z,99504.51
2019-01-17T17:28:20.999Z,99510.49
2019-01-17T17:30:53.184Z,99515.16
2019-01-17T17:33:24.105Z,99516.86
2019-01-17T17:35:55.012Z,99533.23
2019-01-17T17:38:26.211Z,99538.41
2019-01-17T17:40:57.227Z,99540.33
2019-01-17T17:43:28.258Z,99539.78
2019-01-17T17:46:01.156Z,99539.29
2019-01-17T17:48:32.059Z,99546.16
2019-01-17T17:51:03.234Z,99549.75
2019-01-17T17:53:34.239Z,99552.70
2019-01-17T17:56:05.308Z,99553.77
2019-01-17T17:58:36.243Z,99564.67
2019-01-17T18:01:22.608Z,99561.17
2019-01-17T18:03:53.863Z,99572.05
2019-01-17T18:06:25.112Z,99574.30
2019-01-17T18:08:56.024Z,99578.28
2019-01-17T18:11:26.971Z,99586.88
2019-01-17T18:13:57.858Z,99591.00
2019-01-17T18:16:28.818Z,99596.78
2019-01-17T18:18:59.777Z,99603.53
2019-01-17T18:21:30.968Z,99599.00
2019-01-17T18:24:01.880Z,99600.09
2019-01-17T18:26:32.797Z,99598.42
2019-01-17T18:29:03.761Z,99607.67
2019-01-17T18:31:34.641Z,99612.15
2019-01-17T18:34:08.068Z,99617.56
2019-01-17T18:36:39.264Z,99631.80
2019-01-17T18:39:13.994Z,99631.98
2019-01-17T18:41:45.609Z,99637.95
2019-01-17T18:44:17.354Z,99642.57
2019-01-17T18:46:48.387Z,99647.69
2019-01-17T18:49:19.277Z,99659.16
2019-01-17T18:51:51.144Z,99647.98
2019-01-17T18:54:22.057Z,99654.59
2019-01-17T18:56:53.020Z,99655.70
2019-01-17T18:59:24.250Z,99667.56
2019-01-17T19:01:55.436Z,99671.53
2019-01-17T19:04:26.672Z,99679.26
2019-01-17T19:06:57.587Z,99684.67
2019-01-17T19:09:29.453Z,99689.09
2019-01-17T19:12:02.834Z,99693.42
2019-01-17T19:14:38.934Z,99701.52
2019-01-17T19:17:11.658Z,99700.33
2019-01-17T19:19:44.896Z,99703.11
2019-01-17T19:22:15.804Z,99707.50
2019-01-17T19:24:48.974Z,99711.90
2019-01-17T19:27:19.849Z,99709.70
2019-01-17T19:29:51.371Z,99712.77
2019-01-17T19:32:22.260Z,99702.69
2019-01-17T19:34:55.876Z,99709.55
2019-01-17T19:37:27.075Z,99711.59
2019-01-17T19:39:58.056Z,99712.42
2019-01-17T19:42:29.017Z,99730.38
2019-01-17T19:44:59.926Z,99734.48
2019-01-17T19:47:31.198Z,99743.38
2019-01-17T19:50:02.689Z,99747.63
2019-01-17T19:52:33.585Z,99754.33
2019-01-17T19:55:05.407Z,99757.81
2019-01-17T19:57:36.588Z,99771.02
2019-01-17T20:00:10.523Z,99779.47
2019-01-17T20:02:41.989Z,99781.46
2019-01-17T20:05:15.354Z,99778.75
2019-01-17T20:07:46.443Z,99777.88
2019-01-17T20:10:25.841Z,99781.56
2019-01-17T20:12:56.972Z,99788.57
2019-01-17T20:15:27.993Z,99789.85
2019-01-17T20:18:00.299Z,99792.57
2019-01-17T20:20:33.977Z,99797.33
2019-01-17T20:23:05.932Z,99793.85
2019-01-17T20:25:37.308Z,99805.47
2019-01-17T20:28:08.496Z,99806.18
2019-01-17T20:30:39.691Z,99805.68
2019-01-17T20:33:11.016Z,99803.52
2019-01-17T20:35:41.972Z,99813.19
2019-01-17T20:38:13.219Z,99810.79
2019-01-17T20:40:44.103Z,99812.63
2019-01-17T20:43:16.453Z,99808.34
2019-01-17T20:45:47.365Z,99822.29
2019-01-17T20:48:18.399Z,99820.39
2019-01-17T20:50:50.941Z,99829.81
2019-01-17T20:53:22.689Z,99837.22
2019-01-17T20:55:54.383Z,99838.25
2019-01-17T20:58:26.227Z,99845.20
2019-01-17T21:02:16.679Z,99842.06
2019-01-17T21:04:47.851Z,99853.48
2019-01-17T21:07:19.319Z,99867.42
2019-01-17T21:09:50.256Z,99872.22
2019-01-17T21:12:21.164Z,99874.68
2019-01-17T21:14:52.078Z,99874.63
2019-01-17T21:17:23.304Z,99889.34
2019-01-17T21:19:56.775Z,99878.78
2019-01-17T21:22:27.972Z,99894.52
2019-01-17T21:24:59.228Z,99896.05
2019-01-17T21:27:30.129Z,99900.42
2019-01-17T21:30:01.998Z,99913.16
2019-01-17T21:32:33.267Z,99913.45
2019-01-17T21:35:04.660Z,99910.11
2019-01-17T21:37:35.558Z,99921.83
2019-01-17T21:40:09.219Z,99937.12
2019-01-17T21:42:40.223Z,99938.90
2019-01-17T21:45:14.742Z,99938.81
2019-01-17T21:47:46.021Z,99949.38
2019-01-17T21:50:20.975Z,99950.36
2019-01-17T21:52:51.950Z,99956.88
2019-01-17T21:55:22.850Z,99960.54
2019-01-17T21:57:53.855Z,99960.50
2019-01-17T22:00:26.640Z,99972.08
2019-01-17T22:02:57.792Z,99971.68
2019-01-17T22:05:28.983Z,99974.28
2019-01-17T22:08:00.165Z,99984.50
2019-01-17T22:10:31.118Z,99993.34
2019-01-17T22:13:02.009Z,99996.47
2019-01-17T22:15:32.895Z,100000.43
2019-01-17T22:18:04.118Z,100009.80
2019-01-17T22:20:35.017Z,100010.20
2019-01-17T22:23:05.894Z,100021.50
2019-01-17T22:25:36.824Z,100022.91
2019-01-17T22:28:08.009Z,100025.05
2019-01-17T22:30:39.300Z,100023.66
2019-01-17T22:33:10.521Z,100036.16
2019-01-17T22:35:41.507Z,100037.39
2019-01-17T22:38:12.426Z,100039.12
2019-01-17T22:40:43.641Z,100048.56
2019-01-17T22:43:14.521Z,100040.36
2019-01-17T22:45:45.414Z,100048.81
2019-01-17T22:48:16.645Z,100052.97
2019-01-17T22:50:47.630Z,100056.84
2019-01-17T22:53:18.508Z,100060.38
2019-01-17T22:55:49.742Z,100062.00
2019-01-17T22:58:20.632Z,100063.27
2019-01-17T23:01:24.683Z,100066.25
2019-01-17T23:03:57.283Z,100082.19
2019-01-17T23:06:28.168Z,100083.95
2019-01-17T23:08:59.099Z,100090.16
2019-01-17T23:11:29.981Z,100093.58
2019-01-17T23:14:00.871Z,100106.73
2019-01-17T23:16:31.821Z,100113.13
2019-01-17T23:19:02.782Z,100116.84
2019-01-17T23:21:33.671Z,100130.70
2019-01-17T23:24:04.815Z,100141.54
2019-01-17T23:26:35.721Z,100145.13
2019-01-17T23:29:07.014Z,100151.34
2019-01-17T23:31:37.945Z,100161.63
2019-01-17T23:34:08.838Z,100161.86
2019-01-17T23:36:39.759Z,100174.34
2019-01-17T23:39:12.258Z,100193.59
2019-01-17T23:41:43.151Z,100190.47
2019-01-17T23:44:14.119Z,100199.91
2019-01-17T23:46:45.057Z,100209.89
2019-01-17T23:49:15.940Z,100209.03
2019-01-17T23:51:46.817Z,100225.36
2019-01-17T23:54:18.057Z,100232.09
2019-01-17T23:56:48.926Z,100239.81
2019-01-17T23:59:22.782Z,100252.58
